Airfield :
LOGIN :

Register | Disclaimer

   EN    FR    IT 

 










Legend :    VFR   Marginal VFR   IFR   Intensive IFR   Very Intensive IFR
Visi :
Ceiling :
>= 8 km
>= 3000ft
5 to 8 km
1000 to 3000 ft
1500m to 5 km
500 to 1000 ft
800 to 1500m
200 to 500 ft
< 800m
< 200 ft
Symbols :   Thunderstorms  Fog  Heavy snow  Heavy precipitations  Wind > 20 kt
SIGMETs :     Misc.  Thunderstorms  Icing  Turbulence  Mountain Waves  Volcanic Ashes







- Airport Elevation : 485 ft
- IATA code : QSA


LELL - Sabadell

CURRENT METAR :
  • 191430Z 11011KT 080V150 9999 FEW030 27/21 Q1020

EXPIRED METARs :
  • 191400Z 12009KT 080V150 9999 FEW030 28/20 Q1020
  • 191330Z 14007KT 080V180 9999 FEW030 28/20 Q1020
  • 191300Z 13007KT 060V160 9999 FEW030 27/20 Q1020
  • 191230Z 13007KT 070V160 CAVOK 28/20 Q1020

TAF TAF LELL
Valid from the 19 at 15:00 until the 20 at 15:00 UTC


191400Z 1915/2015 13009KT 9999 FEW020 TX32/2013Z TN17/2005Z
PROB30
TEMPO 1915/1918 FEW030CB
BECMG 1917/1919 VRB03KT
TEMPO 2012/2015 13010KT
No reported NOTAMs for that airfield.



MET'MAP, your aeronautical weather chart ! - Copyright ORBIFLY December 2007 - Disclaimer

ORBIFLY MET'MAP TEAM :

Programming & Development : Alexandra Zaïnal
Concept & Development : Baudouin d'Aumeries
Co-Development & Prog : Marc-Olivier Méhu
Technical & hardware support : Manuel Goepfert

Contact : metmap@orbifly.com




SOURCES & CREDITS :

   NOAA